createdAt,value
2023-05-06T00:02:16.149Z,8.40
2023-05-06T00:04:43.432Z,8.32
2023-05-06T00:07:10.733Z,7.82
2023-05-06T00:09:38.011Z,7.90
2023-05-06T00:12:05.724Z,7.70
2023-05-06T00:14:32.876Z,8.32
2023-05-06T00:17:00.159Z,7.57
2023-05-06T00:19:27.613Z,7.30
2023-05-06T00:21:55.978Z,7.57
2023-05-06T00:24:23.270Z,8.70
2023-05-06T00:26:50.462Z,7.68
2023-05-06T00:29:17.743Z,8.13
2023-05-06T00:31:45.524Z,7.40
2023-05-06T00:34:12.767Z,7.63
2023-05-06T00:36:40.045Z,7.10
2023-05-06T00:39:07.256Z,7.22
2023-05-06T00:41:34.287Z,7.28
2023-05-06T00:44:01.403Z,6.68
2023-05-06T00:46:28.578Z,6.80
2023-05-06T00:48:55.834Z,6.32
2023-05-06T00:51:23.568Z,6.45
2023-05-06T00:53:50.842Z,6.20
2023-05-06T00:56:20.689Z,6.22
2023-05-06T00:58:48.561Z,5.82
2023-05-06T01:01:15.891Z,7.05
2023-05-06T01:03:43.194Z,6.10
2023-05-06T01:06:10.772Z,6.50
2023-05-06T01:08:55.350Z,6.43
2023-05-06T01:11:25.959Z,6.22
2023-05-06T01:13:59.572Z,6.60
2023-05-06T01:16:27.005Z,5.82
2023-05-06T01:18:54.282Z,5.88
2023-05-06T01:21:22.207Z,5.65
2023-05-06T01:23:58.281Z,5.97
2023-05-06T01:26:25.587Z,5.30
2023-05-06T01:28:53.375Z,5.90
2023-05-06T01:31:45.686Z,5.43
2023-05-06T01:34:20.358Z,5.40
2023-05-06T01:37:02.963Z,5.43
2023-05-06T01:39:30.968Z,4.75
2023-05-06T01:41:59.380Z,4.85
2023-05-06T01:44:27.930Z,5.20
2023-05-06T01:46:55.210Z,5.13
2023-05-06T01:49:22.773Z,4.70
2023-05-06T01:51:50.512Z,4.50
2023-05-06T01:54:17.884Z,4.82
2023-05-06T01:56:45.702Z,5.30
2023-05-06T01:59:13.003Z,4.82
2023-05-06T02:01:40.198Z,4.75
2023-05-06T02:04:07.872Z,4.55
2023-05-06T02:06:34.953Z,4.32
2023-05-06T02:09:02.092Z,3.78
2023-05-06T02:11:30.675Z,4.20
2023-05-06T02:14:03.228Z,4.90
2023-05-06T02:16:33.164Z,4.70
2023-05-06T02:19:00.900Z,4.22
2023-05-06T02:21:28.339Z,4.47
2023-05-06T02:23:55.852Z,4.45
2023-05-06T02:26:22.872Z,4.10
2023-05-06T02:28:50.078Z,3.78
2023-05-06T02:31:17.122Z,3.75
2023-05-06T02:33:45.268Z,3.95
2023-05-06T02:36:12.310Z,4.10
2023-05-06T02:38:39.388Z,3.83
2023-05-06T02:41:06.370Z,3.80
2023-05-06T02:43:33.567Z,3.20
2023-05-06T02:46:00.661Z,3.90
2023-05-06T02:48:27.697Z,3.70
2023-05-06T02:50:54.821Z,3.30
2023-05-06T02:53:22.180Z,3.60
2023-05-06T02:55:49.295Z,3.33
2023-05-06T02:58:18.921Z,4.05
2023-05-06T03:00:46.137Z,3.20
2023-05-06T03:03:13.135Z,3.70
2023-05-06T03:05:40.084Z,3.47
2023-05-06T03:08:07.221Z,3.60
2023-05-06T03:10:35.683Z,3.33
2023-05-06T03:13:03.008Z,3.50
2023-05-06T03:15:30.320Z,3.25
2023-05-06T03:17:57.318Z,3.42
2023-05-06T03:20:25.163Z,3.20
2023-05-06T03:22:56.050Z,3.10
2023-05-06T03:25:24.417Z,3.50
2023-05-06T03:27:52.490Z,3.10
2023-05-06T03:30:22.294Z,2.90
2023-05-06T03:32:51.667Z,2.95
2023-05-06T03:35:25.977Z,3.42
2023-05-06T03:37:56.650Z,3.13
2023-05-06T03:40:26.336Z,3.10
2023-05-06T03:42:53.959Z,3.05
2023-05-06T03:45:22.649Z,2.80
2023-05-06T03:47:50.253Z,2.80
2023-05-06T03:50:19.505Z,2.53
2023-05-06T03:52:46.589Z,2.60
2023-05-06T03:55:14.596Z,2.80
2023-05-06T03:57:41.854Z,2.78
2023-05-06T04:00:09.638Z,2.70
2023-05-06T04:02:43.892Z,2.45
2023-05-06T04:05:18.448Z,2.85
2023-05-06T04:07:46.290Z,2.58
2023-05-06T04:10:13.526Z,2.35
2023-05-06T04:12:43.440Z,3.25
2023-05-06T04:15:13.039Z,8.00
2023-05-06T04:17:41.168Z,4.75
2023-05-06T04:20:11.591Z,3.15
2023-05-06T04:22:39.939Z,2.63
2023-05-06T04:25:08.691Z,2.60
2023-05-06T04:27:39.168Z,2.67
2023-05-06T04:30:09.044Z,2.38
2023-05-06T04:32:38.781Z,2.70
2023-05-06T04:35:07.698Z,2.60
2023-05-06T04:37:35.596Z,2.58
2023-05-06T04:40:09.372Z,2.33
2023-05-06T04:42:39.626Z,2.70
2023-05-06T04:45:12.345Z,2.47
2023-05-06T04:47:42.767Z,2.60
2023-05-06T04:50:10.526Z,2.63
2023-05-06T04:52:37.758Z,2.33
2023-05-06T04:55:06.040Z,2.10
2023-05-06T04:57:35.496Z,2.25
2023-05-06T05:00:03.714Z,2.60
2023-05-06T05:02:35.274Z,2.38
2023-05-06T05:05:02.883Z,2.55
2023-05-06T05:07:31.961Z,2.33
2023-05-06T05:09:59.503Z,2.22
2023-05-06T05:12:26.500Z,2.50
2023-05-06T05:14:53.774Z,2.30
2023-05-06T05:17:21.343Z,2.20
2023-05-06T05:19:50.201Z,2.33
2023-05-06T05:22:17.907Z,2.25
2023-05-06T05:24:45.101Z,2.05
2023-05-06T05:27:12.260Z,2.50
2023-05-06T05:29:40.248Z,3.10
2023-05-06T05:32:11.017Z,2.67
2023-05-06T05:34:38.764Z,2.20
2023-05-06T05:37:06.233Z,2.03
2023-05-06T05:39:34.161Z,2.22
2023-05-06T05:42:01.340Z,2.30
2023-05-06T05:44:28.980Z,1.80
2023-05-06T05:46:56.434Z,1.92
2023-05-06T05:49:23.721Z,2.40
2023-05-06T05:51:52.985Z,2.28
2023-05-06T05:54:21.372Z,2.08
2023-05-06T05:56:48.506Z,2.10
2023-05-06T05:59:16.309Z,2.15
2023-05-06T06:01:46.040Z,1.88
2023-05-06T06:04:13.774Z,1.85
2023-05-06T06:06:40.833Z,1.95
2023-05-06T06:09:09.599Z,2.05
2023-05-06T06:11:38.420Z,1.92
2023-05-06T06:14:06.629Z,2.20
2023-05-06T06:16:33.867Z,2.15
2023-05-06T06:19:00.967Z,1.70
2023-05-06T06:21:29.191Z,2.15
2023-05-06T06:23:56.187Z,2.08
2023-05-06T06:26:23.209Z,2.15
2023-05-06T06:28:50.125Z,2.05
2023-05-06T06:31:17.382Z,2.50
2023-05-06T06:33:44.695Z,1.98
2023-05-06T06:36:11.795Z,2.38
2023-05-06T06:38:38.863Z,1.98
2023-05-06T06:41:06.069Z,2.30
2023-05-06T06:43:33.062Z,2.08
2023-05-06T06:46:02.228Z,1.90
2023-05-06T06:48:29.385Z,2.00
2023-05-06T06:50:56.480Z,2.20
2023-05-06T06:53:23.493Z,1.80
2023-05-06T06:55:50.627Z,1.90
2023-05-06T06:58:17.773Z,2.05
2023-05-06T07:00:45.123Z,2.33
2023-05-06T07:03:15.557Z,2.00
2023-05-06T07:05:46.982Z,2.03
2023-05-06T07:08:23.814Z,1.90
2023-05-06T07:11:03.663Z,2.15
2023-05-06T07:13:42.126Z,1.88
2023-05-06T07:16:11.585Z,1.88
2023-05-06T07:18:38.855Z,1.80
2023-05-06T07:21:05.750Z,2.10
2023-05-06T07:23:32.924Z,2.08
2023-05-06T07:25:59.937Z,2.00
2023-05-06T07:28:27.071Z,1.90
2023-05-06T07:30:54.250Z,2.10
2023-05-06T07:33:24.058Z,2.30
2023-05-06T07:35:54.246Z,2.00
2023-05-06T07:38:22.787Z,2.60
2023-05-06T07:40:51.356Z,3.00
2023-05-06T07:43:18.329Z,2.55
2023-05-06T07:45:45.320Z,2.00
2023-05-06T07:48:12.358Z,2.20
2023-05-06T07:50:39.657Z,1.80
2023-05-06T07:53:06.694Z,1.98
2023-05-06T07:55:37.600Z,1.80
2023-05-06T07:58:04.520Z,1.90
2023-05-06T08:00:31.570Z,1.60
2023-05-06T08:02:58.587Z,2.20
2023-05-06T08:05:25.722Z,2.60
2023-05-06T08:07:54.071Z,2.13
2023-05-06T08:10:22.459Z,2.20
2023-05-06T08:12:49.593Z,3.40
2023-05-06T08:15:16.952Z,2.05
2023-05-06T08:17:43.937Z,2.00
2023-05-06T08:20:11.475Z,1.92
2023-05-06T08:22:39.501Z,2.67
2023-05-06T08:25:07.138Z,1.77
2023-05-06T08:27:34.237Z,2.00
2023-05-06T08:30:01.294Z,1.85
2023-05-06T08:32:31.084Z,1.85
2023-05-06T08:34:59.853Z,2.10
2023-05-06T08:37:27.057Z,2.00
2023-05-06T08:39:54.084Z,2.00
2023-05-06T08:42:21.386Z,2.15
2023-05-06T08:44:48.467Z,2.33
2023-05-06T08:47:15.500Z,1.98
2023-05-06T08:49:42.581Z,2.40
2023-05-06T08:52:09.744Z,2.30
2023-05-06T08:54:37.166Z,2.10
2023-05-06T08:57:06.162Z,2.20
2023-05-06T08:59:34.326Z,2.00
2023-05-06T09:02:02.194Z,2.00
2023-05-06T09:04:29.669Z,2.00
2023-05-06T09:07:00.376Z,2.05
2023-05-06T09:09:27.489Z,2.10
2023-05-06T09:11:57.632Z,1.85
2023-05-06T09:14:25.090Z,1.85
2023-05-06T09:16:52.827Z,1.85
2023-05-06T09:19:20.863Z,2.10
2023-05-06T09:21:49.760Z,2.10
2023-05-06T09:24:16.903Z,2.17
2023-05-06T09:26:44.961Z,2.15
2023-05-06T09:29:12.020Z,1.90
2023-05-06T09:31:43.395Z,2.30
2023-05-06T09:34:10.661Z,1.90
2023-05-06T09:36:37.862Z,2.38
2023-05-06T09:39:05.437Z,2.40
2023-05-06T09:41:32.483Z,2.17
2023-05-06T09:43:59.530Z,2.22
2023-05-06T09:46:28.110Z,2.30
2023-05-06T09:48:56.535Z,2.20
2023-05-06T09:51:23.618Z,2.08
2023-05-06T09:53:50.955Z,2.10
2023-05-06T09:56:17.953Z,2.28
2023-05-06T09:58:44.919Z,2.08
2023-05-06T10:01:19.174Z,2.15
2023-05-06T10:03:53.393Z,2.10
2023-05-06T10:06:20.622Z,2.35
2023-05-06T10:08:48.070Z,2.15
2023-05-06T10:11:15.063Z,2.05
2023-05-06T10:13:44.485Z,2.10
2023-05-06T10:16:12.731Z,2.28
2023-05-06T10:18:41.001Z,2.30
2023-05-06T10:21:22.033Z,2.03
2023-05-06T10:24:05.273Z,2.17
2023-05-06T10:26:32.307Z,2.20
2023-05-06T10:28:59.359Z,2.30
2023-05-06T10:31:26.965Z,3.08
2023-05-06T10:33:53.941Z,2.20
2023-05-06T10:36:25.735Z,2.20
2023-05-06T10:38:56.688Z,2.35
2023-05-06T10:41:26.142Z,2.78
2023-05-06T10:43:57.199Z,2.10
2023-05-06T10:46:26.380Z,2.13
2023-05-06T10:49:06.389Z,2.70
2023-05-06T10:51:34.233Z,3.00
2023-05-06T10:54:03.171Z,2.45
2023-05-06T10:56:33.955Z,2.65
2023-05-06T10:59:08.551Z,2.33
2023-05-06T11:01:44.879Z,2.30
2023-05-06T11:04:13.212Z,2.42
2023-05-06T11:06:42.880Z,2.47
2023-05-06T11:09:23.150Z,2.40
2023-05-06T11:12:03.999Z,4.30
2023-05-06T11:14:37.842Z,2.53
2023-05-06T11:17:06.473Z,2.60
2023-05-06T11:19:37.386Z,2.65
2023-05-06T11:22:05.948Z,2.40
2023-05-06T11:24:42.911Z,2.90
2023-05-06T11:27:10.705Z,3.20
2023-05-06T11:29:38.058Z,2.55
2023-05-06T11:32:21.242Z,2.30
2023-05-06T11:34:48.468Z,2.80
2023-05-06T11:37:15.490Z,2.40
2023-05-06T11:39:48.421Z,2.63
2023-05-06T11:42:15.921Z,3.40
2023-05-06T11:44:43.111Z,4.60
2023-05-06T11:47:10.276Z,2.80
2023-05-06T11:49:40.926Z,4.05
2023-05-06T11:52:11.703Z,3.50
2023-05-06T11:54:40.230Z,2.90
2023-05-06T11:57:07.503Z,5.38
2023-05-06T11:59:37.505Z,4.57
2023-05-06T12:02:06.274Z,4.53
2023-05-06T12:04:43.928Z,2.58
2023-05-06T12:07:15.079Z,5.20
2023-05-06T12:09:44.711Z,4.90
2023-05-06T12:12:11.824Z,4.13
2023-05-06T12:14:38.965Z,4.97
2023-05-06T12:17:06.133Z,5.03
2023-05-06T12:19:33.497Z,3.13
2023-05-06T12:22:20.067Z,2.40
2023-05-06T12:24:47.845Z,3.72
2023-05-06T12:27:15.404Z,3.03
2023-05-06T12:29:52.900Z,3.60
2023-05-06T12:32:19.983Z,2.90
2023-05-06T12:34:47.016Z,2.70
2023-05-06T12:37:24.470Z,3.17
2023-05-06T12:39:51.496Z,2.88
2023-05-06T12:42:24.518Z,3.55
2023-05-06T12:44:51.657Z,3.33
2023-05-06T12:47:20.489Z,3.45
2023-05-06T12:49:53.851Z,4.75
2023-05-06T12:52:22.291Z,3.38
2023-05-06T12:54:49.639Z,2.80
2023-05-06T12:57:16.691Z,2.80
2023-05-06T12:59:44.232Z,2.92
2023-05-06T13:02:11.351Z,3.05
2023-05-06T13:04:38.595Z,3.30
2023-05-06T13:07:06.112Z,3.45
2023-05-06T13:09:33.287Z,3.38
2023-05-06T13:12:00.297Z,2.83
2023-05-06T13:14:27.393Z,2.90
2023-05-06T13:16:54.410Z,2.40
2023-05-06T13:19:32.530Z,2.35
2023-05-06T13:22:00.957Z,2.35
2023-05-06T13:24:29.306Z,2.88
2023-05-06T13:26:57.434Z,2.80
2023-05-06T13:29:25.145Z,2.67
2023-05-06T13:31:52.604Z,3.60
2023-05-06T13:34:19.923Z,2.90
2023-05-06T13:36:49.441Z,2.70
2023-05-06T13:39:16.680Z,2.42
2023-05-06T13:41:46.387Z,3.08
2023-05-06T13:44:14.058Z,2.85
2023-05-06T13:46:46.085Z,2.97
2023-05-06T13:49:14.519Z,3.20
2023-05-06T13:51:41.532Z,2.60
2023-05-06T13:54:08.725Z,2.65
2023-05-06T13:56:35.881Z,3.00
2023-05-06T13:59:02.976Z,2.90
2023-05-06T14:01:30.125Z,2.85
2023-05-06T14:03:57.256Z,2.90
2023-05-06T14:06:24.452Z,2.70
2023-05-06T14:08:51.561Z,2.67
2023-05-06T14:11:18.605Z,2.50
2023-05-06T14:13:45.621Z,2.70
2023-05-06T14:16:12.855Z,2.80
2023-05-06T14:18:39.956Z,2.88
2023-05-06T14:21:06.943Z,2.92
2023-05-06T14:23:34.114Z,2.85
2023-05-06T14:26:01.289Z,2.97
2023-05-06T14:28:28.355Z,2.90
2023-05-06T14:30:56.440Z,3.00
2023-05-06T14:33:23.634Z,2.78
2023-05-06T14:35:52.774Z,2.67
2023-05-06T14:38:20.160Z,2.83
2023-05-06T14:40:47.081Z,2.90
2023-05-06T14:43:14.132Z,3.08
2023-05-06T14:45:41.133Z,3.25
2023-05-06T14:48:08.389Z,3.85
2023-05-06T14:50:35.517Z,3.30
2023-05-06T14:53:03.933Z,3.15
2023-05-06T14:55:31.359Z,2.83
2023-05-06T14:57:58.416Z,3.25
2023-05-06T15:00:25.642Z,3.20
2023-05-06T15:02:52.907Z,3.13
2023-05-06T15:05:20.340Z,3.50
2023-05-06T15:07:47.575Z,2.80
2023-05-06T15:10:15.131Z,2.88
2023-05-06T15:12:42.087Z,2.40
2023-05-06T15:15:09.720Z,2.78
2023-05-06T15:17:37.648Z,2.72
2023-05-06T15:20:06.750Z,2.60
2023-05-06T15:22:33.996Z,2.60
2023-05-06T15:25:01.663Z,2.72
2023-05-06T15:27:31.993Z,2.83
2023-05-06T15:30:04.141Z,2.50
2023-05-06T15:32:34.108Z,2.70
2023-05-06T15:35:01.251Z,2.80
2023-05-06T15:37:33.846Z,2.50
2023-05-06T15:40:01.277Z,2.70
2023-05-06T15:42:31.607Z,2.65
2023-05-06T15:44:58.876Z,2.80
2023-05-06T15:47:25.895Z,3.13
2023-05-06T15:49:54.990Z,3.10
2023-05-06T15:52:23.205Z,2.72
2023-05-06T15:54:50.930Z,2.95
2023-05-06T15:57:18.142Z,2.72
2023-05-06T15:59:45.539Z,2.85
2023-05-06T16:02:26.785Z,3.00
2023-05-06T16:04:55.058Z,3.03
2023-05-06T16:07:22.422Z,2.88
2023-05-06T16:09:50.191Z,2.45
2023-05-06T16:12:17.173Z,3.20
2023-05-06T16:14:44.459Z,2.80
2023-05-06T16:17:11.691Z,3.50
2023-05-06T16:19:39.085Z,3.08
2023-05-06T16:22:06.194Z,3.58
2023-05-06T16:24:33.141Z,4.10
2023-05-06T16:27:00.434Z,4.90
2023-05-06T16:29:27.535Z,3.55
2023-05-06T16:31:54.634Z,3.33
2023-05-06T16:34:21.889Z,3.10
2023-05-06T16:36:49.264Z,3.60
2023-05-06T16:39:22.444Z,4.40
2023-05-06T16:41:49.460Z,4.15
2023-05-06T16:44:16.471Z,3.70
2023-05-06T16:46:43.683Z,3.15
2023-05-06T16:49:10.763Z,3.30
2023-05-06T16:51:37.888Z,3.03
2023-05-06T16:54:04.881Z,2.85
2023-05-06T16:56:43.834Z,2.78
2023-05-06T16:59:15.737Z,2.70
2023-05-06T17:01:42.825Z,3.20
2023-05-06T17:04:10.352Z,2.55
2023-05-06T17:06:37.501Z,2.50
2023-05-06T17:09:04.678Z,2.58
2023-05-06T17:11:31.921Z,2.38
2023-05-06T17:13:59.002Z,2.85
2023-05-06T17:16:26.326Z,3.78
2023-05-06T17:18:53.464Z,5.30
2023-05-06T17:21:21.416Z,4.30
2023-05-06T17:23:48.682Z,4.60
2023-05-06T17:26:17.835Z,5.25
2023-05-06T17:28:45.275Z,3.65
2023-05-06T17:31:16.158Z,3.97
2023-05-06T17:33:44.532Z,5.22
2023-05-06T17:36:13.064Z,4.50
2023-05-06T17:38:40.145Z,3.83
2023-05-06T17:41:08.007Z,3.55
2023-05-06T17:43:35.063Z,3.75
2023-05-06T17:46:02.474Z,3.70
2023-05-06T17:48:29.753Z,4.93
2023-05-06T17:51:01.349Z,5.20
2023-05-06T17:53:28.819Z,4.78
2023-05-06T17:55:56.085Z,4.68
2023-05-06T17:58:23.409Z,4.53
2023-05-06T18:00:50.715Z,4.68
2023-05-06T18:03:21.130Z,4.80
2023-05-06T18:05:48.243Z,5.13
2023-05-06T18:08:15.484Z,5.10
2023-05-06T18:10:42.427Z,5.25
2023-05-06T18:13:09.528Z,4.82
2023-05-06T18:15:37.951Z,5.00
2023-05-06T18:18:08.036Z,4.55
2023-05-06T18:20:35.107Z,5.20
2023-05-06T18:23:02.116Z,5.00
2023-05-06T18:25:29.264Z,4.85
2023-05-06T18:27:56.514Z,3.58
2023-05-06T18:30:23.717Z,3.60
2023-05-06T18:32:52.260Z,3.53
2023-05-06T18:35:20.528Z,3.00
2023-05-06T18:37:47.672Z,3.22
2023-05-06T18:40:14.833Z,3.58
2023-05-06T18:42:41.824Z,3.70
2023-05-06T18:45:09.753Z,4.00
2023-05-06T18:47:40.328Z,4.95
2023-05-06T18:50:08.579Z,4.25
2023-05-06T18:52:38.922Z,4.30
2023-05-06T18:55:07.494Z,4.05
2023-05-06T18:57:34.585Z,3.95
2023-05-06T19:00:01.900Z,4.00
2023-05-06T19:02:29.873Z,4.35
2023-05-06T19:04:58.329Z,4.03
2023-05-06T19:07:25.417Z,4.68
2023-05-06T19:09:52.453Z,5.60
2023-05-06T19:12:20.199Z,5.53
2023-05-06T19:14:47.215Z,6.38
2023-05-06T19:17:15.966Z,6.35
2023-05-06T19:19:45.821Z,6.25
2023-05-06T19:22:13.786Z,6.20
2023-05-06T19:24:40.777Z,5.25
2023-05-06T19:27:07.874Z,4.80
2023-05-06T19:29:35.202Z,5.20
2023-05-06T19:32:05.027Z,4.60
2023-05-06T19:34:32.124Z,4.32
2023-05-06T19:36:59.137Z,5.03
2023-05-06T19:39:26.474Z,4.22
2023-05-06T19:41:57.743Z,4.70
2023-05-06T19:44:24.714Z,5.13
2023-05-06T19:46:54.714Z,4.72
2023-05-06T19:49:21.704Z,5.68
2023-05-06T19:51:48.858Z,6.50
2023-05-06T19:54:15.862Z,7.20
2023-05-06T19:56:43.689Z,6.70
2023-05-06T19:59:10.799Z,7.55
2023-05-06T20:01:38.890Z,7.88
2023-05-06T20:04:06.366Z,7.43
2023-05-06T20:06:33.499Z,6.82
2023-05-06T20:09:00.972Z,7.10
2023-05-06T20:11:28.049Z,7.13
2023-05-06T20:13:55.040Z,7.18
2023-05-06T20:16:22.570Z,8.20
2023-05-06T20:18:51.777Z,7.32
2023-05-06T20:21:18.793Z,6.95
2023-05-06T20:23:45.843Z,6.72
2023-05-06T20:26:13.014Z,6.07
2023-05-06T20:28:40.093Z,5.88
2023-05-06T20:31:07.246Z,6.35
2023-05-06T20:33:34.254Z,5.05
2023-05-06T20:36:01.597Z,5.80
2023-05-06T20:38:30.854Z,5.10
2023-05-06T20:40:58.976Z,4.82
2023-05-06T20:43:26.107Z,5.05
2023-05-06T20:45:53.144Z,4.85
2023-05-06T20:48:20.254Z,4.78
2023-05-06T20:50:47.511Z,4.82
2023-05-06T20:53:14.639Z,4.72
2023-05-06T20:55:41.803Z,4.90
2023-05-06T20:58:08.911Z,4.22
2023-05-06T21:00:35.932Z,4.22
2023-05-06T21:03:03.082Z,4.50
2023-05-06T21:05:30.135Z,4.45
2023-05-06T21:07:57.093Z,4.80
2023-05-06T21:10:24.074Z,4.80
2023-05-06T21:12:51.522Z,4.85
2023-05-06T21:15:18.446Z,4.57
2023-05-06T21:17:45.556Z,4.90
2023-05-06T21:20:13.233Z,5.75
2023-05-06T21:22:40.425Z,5.25
2023-05-06T21:25:08.532Z,5.07
2023-05-06T21:27:35.757Z,5.57
2023-05-06T21:30:03.273Z,5.80
2023-05-06T21:32:33.410Z,5.63
2023-05-06T21:35:03.485Z,5.82
2023-05-06T21:37:35.779Z,5.45
2023-05-06T21:40:04.653Z,5.07
2023-05-06T21:42:34.383Z,5.53
2023-05-06T21:45:01.642Z,5.28
2023-05-06T21:47:29.549Z,6.15
2023-05-06T21:49:56.577Z,5.93
2023-05-06T21:52:23.723Z,5.28
2023-05-06T21:54:50.772Z,5.22
2023-05-06T21:57:18.869Z,5.90
2023-05-06T21:59:45.950Z,5.40
2023-05-06T22:02:12.996Z,5.82
2023-05-06T22:04:39.969Z,5.85
2023-05-06T22:07:07.317Z,5.80
2023-05-06T22:09:34.374Z,5.05
2023-05-06T22:12:04.734Z,5.60
2023-05-06T22:14:40.501Z,5.30
2023-05-06T22:17:08.380Z,5.50
2023-05-06T22:19:35.629Z,5.30
2023-05-06T22:22:03.334Z,5.15
2023-05-06T22:24:30.360Z,5.35
2023-05-06T22:26:57.567Z,5.13
2023-05-06T22:29:24.568Z,5.25
2023-05-06T22:31:51.843Z,6.25
2023-05-06T22:34:18.925Z,5.65
2023-05-06T22:36:46.030Z,5.65
2023-05-06T22:39:13.339Z,5.40
2023-05-06T22:41:40.361Z,5.65
2023-05-06T22:44:07.616Z,5.30
2023-05-06T22:46:34.580Z,6.00
2023-05-06T22:49:01.701Z,6.03
2023-05-06T22:51:29.130Z,5.65
2023-05-06T22:53:56.065Z,5.47
2023-05-06T22:56:23.083Z,6.07
2023-05-06T22:58:50.128Z,5.82
2023-05-06T23:01:17.993Z,6.18
2023-05-06T23:03:45.163Z,5.70
2023-05-06T23:06:12.188Z,5.78
2023-05-06T23:08:39.155Z,5.35
2023-05-06T23:11:06.272Z,5.68
2023-05-06T23:13:36.140Z,5.63
2023-05-06T23:16:03.950Z,5.68
2023-05-06T23:18:31.043Z,5.70
2023-05-06T23:20:58.183Z,5.78
2023-05-06T23:23:25.289Z,6.20
2023-05-06T23:25:53.395Z,6.32
2023-05-06T23:28:21.035Z,5.78
2023-05-06T23:30:48.024Z,6.38
2023-05-06T23:33:15.190Z,6.40
2023-05-06T23:35:42.608Z,6.30
2023-05-06T23:38:09.570Z,7.30
2023-05-06T23:40:36.516Z,7.05
2023-05-06T23:43:03.518Z,6.70
2023-05-06T23:45:30.535Z,7.45
2023-05-06T23:47:57.548Z,7.28
2023-05-06T23:50:24.654Z,7.28
2023-05-06T23:52:51.689Z,7.18
2023-05-06T23:55:18.867Z,7.15
2023-05-06T23:57:46.104Z,7.10
